Station: Low Head  

  Atmospheric Gas Attenuation - ITU Rec 676-11   ----------------- dB/100km -----------------
Date Time Temp RH % AH g/m3 Dew Point Wind Direction Speed kph Gust kph Barometer mB Rainfall Since 9am 24GHz 47GHz 76GHz 122GHz 134GHz 241GHz
08/05 12:30 15.5 66 8.72 9.2 41 46 1015.4 0.2 19.8 25.7 39.5 103.7 98.0 337.3
08/05 12:20 15.5 65 8.59 9 41 44 1015.3 0.2 19.5 25.5 39.0 102.3 96.3 331.4
08/05 12:10 15.4 65 8.54 8.9 41 44 1015.4 0.2 19.4 25.4 38.9 101.9 95.8 329.6
08/05 12:00 15.3 65 8.49 8.8 39 43 1015.5 0.2 19.3 25.4 38.7 101.6 95.3 327.7
08/05 11:50 15 67 8.59 8.9 37 43 1015.4 0.2 19.5 25.6 39.3 103.0 96.9 333.5
08/05 11:40 15.1 66 8.51 8.8 39 41 1015.4 0 19.3 25.5 38.9 102.0 95.8 329.5
08/05 11:30 15.2 64 8.31 8.4 41 46 1015.4 0 18.9 25.1 38.1 99.8 93.1 320.0
08/05 11:20 15.3 65 8.49 8.8 39 41 1015.2 0 19.3 25.4 38.7 101.5 95.3 327.7
08/05 11:10 15.4 65 8.54 8.9 37 41 1015.1 0 19.4 25.4 38.9 101.9 95.8 329.5
08/05 11:00 15.2 63 8.18 8.2 41 50 1014.9 0 18.6 24.9 37.5 98.4 91.4 314.0
08/05 10:50 15.1 65 8.39 8.6 44 50 1014.8 0 19.1 25.2 38.4 100.7 94.2 323.9
08/05 10:40 15.1 64 8.26 8.3 39 43 1014.7 0 18.8 25.0 37.9 99.3 92.5 318.0
08/05 10:30 14.9 62 7.9 7.7 41 46 1014.4 0 18.0 24.5 36.6 95.8 88.1 302.6
08/05 10:20 14.8 63 7.98 7.8 41 43 1014.2 0 18.2 24.7 36.9 96.8 89.2 306.5
08/05 10:10 14.7 64 8.06 8 41 44 1014 0 18.4 24.8 37.3 97.7 90.3 310.4
08/05 10:00 14.8 65 8.23 8.3 41 46 1014 0 18.8 25.0 37.9 99.3 92.4 317.7
08/05 09:50 14.7 64 8.06 8 41 44 1013.9 0 18.4 24.8 37.3 97.7 90.3 310.4
08/05 09:40 14.8 59 7.47 6.9 43 46 1013.6 0 17.1 23.9 34.9 91.5 82.7 283.8
08/05 09:30 14.7 59 7.43 6.8 39 46 1013.3 0 17.1 23.8 34.8 91.2 82.3 282.3
08/05 09:20 14.6 60 7.51 6.9 41 43 1013.2 0 17.2 24.0 35.2 92.1 83.4 286.2
08/05 09:10 14.5 59 7.34 6.6 37 41 1013.1 0 16.9 23.7 34.6 90.5 81.4 279.0
08/05 09:00 14.4 60 7.42 6.7 35 43 1012.9 0 17.0 23.9 34.9 91.4 82.5 282.9
08/05 08:50 14.4 60 7.42 6.7 37 41 1012.8 0 17.0 23.9 34.9 91.3 82.5 282.8
08/05 08:40 14.3 59 7.25 6.4 41 44 1012.6 0 16.7 23.6 34.3 89.7 80.5 275.7
08/05 08:30 14.2 61 7.45 6.8 37 43 1012.5 0 17.1 23.9 35.1 91.9 83.1 284.8
08/05 08:20 14 62 7.48 6.8 41 44 1012.4 0 17.2 24.0 35.3 92.4 83.6 286.8
08/05 08:10 13.8 63 7.51 6.9 33 39 1012 0 17.3 24.1 35.5 92.9 84.2 288.8
08/05 08:00 13.7 64 7.58 7 30 41 1011.9 0 17.4 24.3 35.8 93.7 85.2 292.2
08/05 07:50 13.7 65 7.7 7.2 26 30 1011.6 0 17.7 24.4 36.2 94.9 86.7 297.5
08/05 07:40 13.6 63 7.41 6.7 28 33 1011.4 0 17.1 24.0 35.1 92.0 83.1 284.9
08/05 07:30 13.4 65 7.56 7 30 37 1011.1 0 17.4 24.3 35.8 93.8 85.2 292.2
08/05 07:20 13.6 66 7.77 7.4 32 35 1010.9 0 17.8 24.5 36.5 95.7 87.7 300.9
08/05 07:10 13.6 65 7.65 7.2 37 41 1010.6 0 17.6 24.3 36.0 94.4 86.1 295.4
08/05 07:00 13.6 64 7.53 6.9 33 43 1010.5 0 17.3 24.1 35.6 93.2 84.6 290.0
08/05 06:50 13.5 64 7.49 6.8 33 39 1010.5 0 17.2 24.1 35.5 92.9 84.2 288.6
08/05 06:40 13.4 63 7.32 6.5 35 37 1010.2 0 16.9 23.9 34.8 91.2 82.1 281.4
08/05 06:30 13.5 60 7.02 5.9 32 39 1010.1 0 16.2 23.4 33.6 88.1 78.2 267.8
08/05 06:20 13.7 66 7.82 7.5 32 33 1009.7 0 17.9 24.5 36.6 96.0 88.1 302.4
08/05 06:10 13.5 67 7.84 7.5 35 43 1009.3 0 18.0 24.6 36.8 96.4 88.5 304.0
08/05 06:00 13.5 67 7.84 7.5 43 50 1009.1 0 18.0 24.6 36.8 96.4 88.5 303.9
08/05 05:50 13.5 65 7.6 7.1 46 50 1008.8 0 17.5 24.2 35.8 93.9 85.4 293.1
08/05 05:40 13.8 67 7.98 7.8 43 46 1008.7 0 18.3 24.7 37.1 97.4 90.0 309.0
08/05 05:30 13.7 68 8.05 7.9 48 54 1008.8 0 18.4 24.9 37.5 98.3 91.0 312.6
08/05 05:20 13.8 68 8.1 8 50 52 1008.8 0 18.5 24.9 37.6 98.7 91.5 314.4
08/05 05:10 13.8 66 7.86 7.6 46 52 1008.9 0 18.0 24.6 36.7 96.2 88.4 303.6
08/05 05:00 13.9 65 7.79 7.4 44 52 1009 0 17.9 24.4 36.4 95.4 87.4 300.1
08/05 04:50 14 66 7.96 7.8 46 50 1009.1 0 18.2 24.7 37.0 97.0 89.5 307.4
08/05 04:40 13.7 64 7.58 7 37 39 1009.1 0 17.4 24.1 35.7 93.4 85.0 291.5
08/05 04:30 13.7 63 7.46 6.8 37 43 1009 0 17.2 24.0 35.2 92.2 83.5 286.2
08/05 04:20 13.7 64 7.58 7 33 41 1008.9 0 17.4 24.1 35.6 93.4 85.0 291.5
08/05 04:10 13.7 65 7.7 7.2 32 41 1009 0 17.7 24.3 36.1 94.7 86.5 296.9
08/05 04:00 13.8 65 7.74 7.3 28 39 1008.9 0 17.8 24.4 36.2 95.0 86.9 298.3
08/05 03:50 13.7 65 7.7 7.2 28 30 1008.9 0 17.7 24.3 36.1 94.7 86.5 296.8
08/05 03:40 13.7 63 7.46 6.8 28 30 1008.9 0 17.2 24.0 35.2 92.2 83.5 286.2
08/05 03:30 13.9 66 7.91 7.7 32 43 1008.9 0 18.1 24.6 36.8 96.6 89.0 305.5
08/05 03:20 13.9 67 8.03 7.9 22 26 1008.9 0 18.4 24.8 37.3 97.8 90.5 310.9
08/05 03:10 13.7 68 8.05 7.9 24 26 1008.8 0 18.4 24.9 37.5 98.3 91.0 312.6
08/05 03:00 13.9 68 8.15 8.1 30 35 1008.7 0 18.6 25.0 37.8 99.1 92.0 316.3
08/05 02:50 13.9 70 8.39 8.5 28 32 1008.5 0 19.1 25.3 38.7 101.6 95.1 327.1
08/05 02:40 14 70 8.44 8.6 35 39 1008.4 0 19.2 25.4 38.8 102.0 95.7 329.0
08/05 02:30 14 69 8.32 8.4 32 39 1008.4 0 19.0 25.2 38.4 100.7 94.1 323.5
08/05 02:20 14.1 68 8.25 8.3 32 35 1008.4 0 18.8 25.1 38.0 99.8 93.1 319.9
08/05 02:10 14.2 67 8.18 8.2 43 44 1008.1 0 18.7 24.9 37.7 99.0 92.0 316.3
08/05 02:00 14.5 67 8.33 8.5 37 48 1008.2 0 19.0 25.1 38.2 100.2 93.6 321.9
08/05 01:50 14.2 66 8.06 7.9 33 39 1008.1 0 18.4 24.7 37.2 97.7 90.5 310.9
08/05 01:40 14.2 68 8.3 8.4 28 33 1008 0 18.9 25.1 38.2 100.2 93.6 321.7
08/05 01:30 14.2 71 8.67 9 28 39 1008 0 19.7 25.7 39.6 104.1 98.4 338.6
08/05 01:20 14.2 74 9.04 9.6 30 33 1007.9 0 20.5 26.3 41.1 108.1 103.3 355.6
08/05 01:10 14.3 72 8.85 9.3 32 35 1007.8 0 20.1 25.9 40.3 105.9 100.6 346.3
08/05 01:00 14.5 72 8.96 9.5 41 48 1007.7 0 20.3 26.1 40.6 106.8 101.8 350.5
08/05 00:50 14.7 73 9.19 9.9 43 50 1007.6 0 20.8 26.4 41.5 109.0 104.6 360.2
08/05 00:40 14.7 74 9.32 10.1 43 44 1007.5 0 21.1 26.6 42.0 110.4 106.3 366.3
08/05 00:30 14.6 76 9.51 10.4 46 61 1007.4 0 21.5 26.9 42.8 112.6 109.0 375.6
08/05 00:20 14.6 76 9.51 10.4 48 57 1007.4 0 21.5 26.9 42.8 112.6 109.0 375.6
08/05 00:10 14.4 78 9.64 10.6 48 56 1007.5 0 21.8 27.2 43.4 114.3 111.0 382.7
08/05 00:00 14.3 78 9.58 10.5 48 59 1007.6 0 21.7 27.1 43.3 113.8 110.3 380.4
07/05 23:50 14.5 78 9.7 10.7 48 56 1007.5 0 21.9 27.3 43.6 114.8 111.7 385.1
07/05 23:40 14.4 78 9.64 10.6 48 54 1007.5 0 21.8 27.2 43.4 114.3 111.0 382.7
07/05 23:30 14.1 79 9.59 10.5 52 61 1007.6 0 21.7 27.2 43.4 114.2 110.8 381.9
07/05 23:20 14.2 78 9.52 10.4 56 59 1007.7 0 21.5 27.1 43.1 113.3 109.7 378.1
07/05 23:10 14 78 9.41 10.2 46 52 1007.7 0 21.3 27.0 42.7 112.4 108.5 373.9
07/05 23:00 14.1 79 9.59 10.5 54 65 1007.8 0 21.7 27.2 43.4 114.2 110.8 381.9
07/05 22:50 13.9 78 9.35 10.1 54 59 1007.7 0 21.2 26.9 42.5 111.8 107.8 371.5
07/05 22:40 13.7 79 9.36 10.1 59 63 1008 0 21.2 27.0 42.7 112.3 108.3 373.0
07/05 22:30 13.7 80 9.47 10.3 52 61 1008.2 0 21.5 27.2 43.2 113.5 109.8 378.3
07/05 22:20 13.3 79 9.13 9.7 48 52 1008.4 0 20.8 26.7 42.0 110.4 105.7 364.1
07/05 22:10 13.3 81 9.36 10.1 54 57 1008.7 0 21.2 27.1 43.0 112.9 108.9 375.1
07/05 22:00 13 81 9.19 9.8 48 59 1008.8 0 20.9 26.9 42.4 111.5 107.0 368.5
07/05 21:50 13.1 83 9.47 10.3 48 54 1009.3 0 21.5 27.4 43.5 114.5 110.7 381.6
07/05 21:40 12.7 81 9.02 9.5 44 50 1009.5 0 20.5 26.8 41.9 110.1 105.2 362.0
07/05 21:30 13.1 84 9.59 10.5 43 50 1009.8 0 21.8 27.6 44.1 115.9 112.4 387.5
07/05 21:20 12.9 82 9.24 9.9 44 46 1010 0 21.0 27.1 42.7 112.3 107.9 371.7
07/05 21:10 12.7 82 9.13 9.7 43 50 1010.1 0 20.8 27.0 42.4 111.4 106.7 367.5
07/05 21:00 12.8 81 9.07 9.6 41 52 1010.3 0 20.7 26.9 42.1 110.6 105.8 364.2
07/05 20:50 12.7 81 9.02 9.5 41 44 1010.8 0 20.5 26.8 42.0 110.3 105.3 362.4
07/05 20:40 12.7 81 9.02 9.5 41 44 1010.9 0 20.5 26.8 42.0 110.3 105.3 362.5
07/05 20:30 12.6 80 8.85 9.2 41 52 1011 0 20.2 26.6 41.3 108.6 103.1 354.9
07/05 20:20 12.4 80 8.74 9.1 44 48 1011.2 0 20.0 26.5 41.0 107.6 101.9 350.6
07/05 20:10 12.3 80 8.69 9 44 52 1011.5 0 19.9 26.4 40.8 107.3 101.4 348.8
07/05 20:00 12.2 80 8.63 8.9 44 56 1011.5 0 19.7 26.3 40.7 106.7 100.7 346.4

Last Refresh: 08-May-2026 12:08:00

Bureau of Meteorology